createdAt,value
2023-09-28T00:01:34.456Z,4.90
2023-09-28T00:04:02.130Z,5.10
2023-09-28T00:06:30.032Z,4.93
2023-09-28T00:08:57.633Z,4.70
2023-09-28T00:11:25.241Z,4.83
2023-09-28T00:13:53.149Z,4.97
2023-09-28T00:16:21.049Z,5.10
2023-09-28T00:18:48.613Z,5.50
2023-09-28T00:21:16.214Z,5.10
2023-09-28T00:23:43.876Z,4.70
2023-09-28T00:26:11.532Z,4.50
2023-09-28T00:28:39.194Z,4.37
2023-09-28T00:31:06.903Z,4.20
2023-09-28T00:33:34.509Z,4.83
2023-09-28T00:36:02.298Z,4.80
2023-09-28T00:38:29.930Z,4.40
2023-09-28T00:40:57.660Z,4.37
2023-09-28T00:43:28.118Z,4.67
2023-09-28T00:45:55.815Z,4.50
2023-09-28T00:48:23.530Z,4.37
2023-09-28T00:50:52.861Z,4.70
2023-09-28T00:53:20.999Z,4.80
2023-09-28T00:55:49.028Z,4.93
2023-09-28T00:58:16.901Z,4.50
2023-09-28T01:00:44.671Z,4.73
2023-09-28T01:03:12.801Z,4.83
2023-09-28T01:05:40.637Z,5.30
2023-09-28T01:08:12.478Z,4.20
2023-09-28T01:10:40.685Z,5.13
2023-09-28T01:13:08.739Z,4.80
2023-09-28T01:15:36.461Z,4.83
2023-09-28T01:18:04.188Z,5.20
2023-09-28T01:20:31.866Z,4.87
2023-09-28T01:22:59.496Z,4.20
2023-09-28T01:25:27.233Z,4.90
2023-09-28T01:27:54.813Z,4.47
2023-09-28T01:30:22.400Z,4.50
2023-09-28T01:32:50.065Z,4.23
2023-09-28T01:35:17.771Z,4.37
2023-09-28T01:38:04.228Z,4.77
2023-09-28T01:40:31.919Z,4.87
2023-09-28T01:43:02.354Z,4.37
2023-09-28T01:45:29.974Z,4.97
2023-09-28T01:47:57.772Z,4.70
2023-09-28T01:50:25.496Z,4.50
2023-09-28T01:52:53.106Z,4.20
2023-09-28T01:55:20.895Z,4.57
2023-09-28T01:57:48.493Z,4.43
2023-09-28T02:00:16.441Z,4.80
2023-09-28T02:02:44.473Z,5.00
2023-09-28T02:05:12.404Z,4.73
2023-09-28T02:07:40.071Z,4.90
2023-09-28T02:10:07.987Z,5.07
2023-09-28T02:12:35.731Z,4.57
2023-09-28T02:15:03.984Z,5.17
2023-09-28T02:17:31.591Z,4.60
2023-09-28T02:19:59.303Z,4.60
2023-09-28T02:22:26.900Z,4.77
2023-09-28T02:24:54.504Z,4.80
2023-09-28T02:27:22.072Z,4.73
2023-09-28T02:29:49.993Z,4.37
2023-09-28T02:32:17.594Z,4.33
2023-09-28T02:34:45.344Z,4.47
2023-09-28T02:37:12.976Z,4.73
2023-09-28T02:39:40.626Z,4.80
2023-09-28T02:42:08.222Z,5.07
2023-09-28T02:44:36.156Z,4.90
2023-09-28T02:47:04.298Z,4.17
2023-09-28T02:49:32.167Z,4.40
2023-09-28T02:52:00.481Z,5.00
2023-09-28T02:54:28.070Z,4.63
2023-09-28T02:56:55.641Z,4.97
2023-09-28T02:59:23.298Z,5.07
2023-09-28T03:01:51.280Z,4.33
2023-09-28T03:04:19.042Z,4.80
2023-09-28T03:06:46.757Z,4.90
2023-09-28T03:09:14.764Z,4.90
2023-09-28T03:11:42.336Z,5.47
2023-09-28T03:14:10.170Z,5.00
2023-09-28T03:16:37.910Z,5.30
2023-09-28T03:19:05.545Z,5.23
2023-09-28T03:21:33.072Z,5.40
2023-09-28T03:24:00.841Z,5.00
2023-09-28T03:26:31.416Z,5.60
2023-09-28T03:28:59.272Z,5.47
2023-09-28T03:31:27.283Z,5.60
2023-09-28T03:33:55.803Z,5.50
2023-09-28T03:36:23.714Z,5.67
2023-09-28T03:38:51.662Z,5.27
2023-09-28T03:41:19.293Z,5.57
2023-09-28T03:43:47.088Z,5.70
2023-09-28T03:46:14.698Z,6.33
2023-09-28T03:48:42.331Z,5.83
2023-09-28T03:51:09.886Z,5.77
2023-09-28T03:53:40.316Z,5.10
2023-09-28T03:56:08.073Z,6.23
2023-09-28T03:58:35.662Z,5.73
2023-09-28T04:01:03.299Z,5.87
2023-09-28T04:03:31.062Z,5.43
2023-09-28T04:05:58.679Z,6.43
2023-09-28T04:08:26.306Z,6.03
2023-09-28T04:10:54.023Z,5.70
2023-09-28T04:13:21.568Z,5.90
2023-09-28T04:15:49.385Z,6.20
2023-09-28T04:18:17.003Z,5.73
2023-09-28T04:20:44.667Z,6.20
2023-09-28T04:23:12.294Z,5.50
2023-09-28T04:25:39.949Z,5.80
2023-09-28T04:28:07.543Z,6.20
2023-09-28T04:30:35.110Z,6.37
2023-09-28T04:33:02.737Z,5.87
2023-09-28T04:35:30.420Z,6.03
2023-09-28T04:37:58.025Z,6.70
2023-09-28T04:40:25.994Z,6.20
2023-09-28T04:42:54.196Z,6.00
2023-09-28T04:45:21.826Z,6.50
2023-09-28T04:47:49.428Z,6.17
2023-09-28T04:50:17.116Z,6.07
2023-09-28T04:52:44.735Z,6.57
2023-09-28T04:55:12.384Z,6.57
2023-09-28T04:57:39.947Z,6.77
2023-09-28T05:00:07.990Z,7.07
2023-09-28T05:02:35.715Z,6.90
2023-09-28T05:05:03.491Z,7.07
2023-09-28T05:07:31.197Z,6.70
2023-09-28T05:09:58.809Z,5.83
2023-09-28T05:12:26.404Z,6.47
2023-09-28T05:14:54.081Z,6.67
2023-09-28T05:17:23.066Z,6.73
2023-09-28T05:19:50.850Z,6.87
2023-09-28T05:22:18.496Z,6.93
2023-09-28T05:24:46.161Z,6.07
2023-09-28T05:27:13.772Z,6.53
2023-09-28T05:29:41.559Z,6.83
2023-09-28T05:32:09.193Z,7.17
2023-09-28T05:34:36.905Z,6.90
2023-09-28T05:37:04.571Z,8.53
2023-09-28T05:39:32.142Z,8.37
2023-09-28T05:41:59.748Z,8.07
2023-09-28T05:44:27.397Z,6.70
2023-09-28T05:46:55.008Z,6.47
2023-09-28T05:49:22.640Z,6.57
2023-09-28T05:51:50.267Z,6.43
2023-09-28T05:54:17.852Z,5.80
2023-09-28T05:56:45.481Z,5.90
2023-09-28T05:59:13.125Z,5.40
2023-09-28T06:01:40.856Z,6.20
2023-09-28T06:04:08.510Z,6.10
2023-09-28T06:06:36.104Z,5.63
2023-09-28T06:09:03.753Z,6.50
2023-09-28T06:11:31.358Z,6.40
2023-09-28T06:14:07.826Z,6.10
2023-09-28T06:16:36.295Z,6.03
2023-09-28T06:19:04.015Z,5.67
2023-09-28T06:21:31.612Z,5.87
2023-09-28T06:23:59.331Z,5.23
2023-09-28T06:26:41.334Z,5.57
2023-09-28T06:29:10.315Z,5.27
2023-09-28T06:31:38.229Z,5.47
2023-09-28T06:34:05.918Z,4.97
2023-09-28T06:39:04.411Z,5.90
2023-09-28T06:41:31.966Z,5.30
2023-09-28T06:43:59.625Z,5.17
2023-09-28T06:46:27.247Z,5.27
2023-09-28T06:48:55.125Z,5.60
2023-09-28T06:51:22.950Z,5.37
2023-09-28T06:53:50.582Z,4.80
2023-09-28T06:56:18.178Z,5.67
2023-09-28T06:58:46.172Z,5.90
2023-09-28T07:01:13.923Z,5.43
2023-09-28T07:03:41.735Z,6.00
2023-09-28T07:06:09.327Z,5.37
2023-09-28T07:08:36.996Z,5.03
2023-09-28T07:11:04.619Z,5.20
2023-09-28T07:13:32.305Z,5.00
2023-09-28T07:16:00.007Z,5.17
2023-09-28T07:18:27.977Z,5.33
2023-09-28T07:20:55.685Z,4.90
2023-09-28T07:23:23.344Z,5.43
2023-09-28T07:25:50.961Z,5.37
2023-09-28T07:28:18.639Z,3.93
2023-09-28T07:30:46.350Z,5.23
2023-09-28T07:33:14.233Z,4.63
2023-09-28T07:35:42.264Z,5.27
2023-09-28T07:38:09.956Z,5.00
2023-09-28T07:43:12.455Z,4.00
2023-09-28T07:45:40.051Z,4.30
2023-09-28T07:48:07.996Z,4.50
2023-09-28T07:50:35.696Z,4.70
2023-09-28T07:53:03.353Z,4.23
2023-09-28T07:55:30.990Z,4.30
2023-09-28T07:58:11.558Z,4.43
2023-09-28T08:00:46.833Z,4.80
2023-09-28T08:03:14.719Z,3.77
2023-09-28T08:05:42.650Z,4.40
2023-09-28T08:08:16.714Z,4.20
2023-09-28T08:10:46.030Z,4.17
2023-09-28T08:13:14.631Z,5.00
2023-09-28T08:15:43.435Z,4.50
2023-09-28T08:18:11.296Z,4.30
2023-09-28T08:20:41.929Z,4.03
2023-09-28T08:23:11.381Z,5.07
2023-09-28T08:25:39.034Z,4.10
2023-09-28T08:28:06.974Z,4.10
2023-09-28T08:30:34.581Z,4.57
2023-09-28T08:33:03.025Z,3.50
2023-09-28T08:35:33.586Z,4.40
2023-09-28T08:38:01.381Z,4.23
2023-09-28T08:40:29.080Z,4.47
2023-09-28T08:42:57.834Z,5.07
2023-09-28T08:45:25.492Z,4.43
2023-09-28T08:47:53.812Z,4.33
2023-09-28T08:50:25.362Z,4.33
2023-09-28T08:52:53.285Z,4.10
2023-09-28T08:55:21.489Z,4.37
2023-09-28T08:57:49.825Z,4.10
2023-09-28T09:00:17.633Z,4.00
2023-09-28T09:02:45.549Z,3.70
2023-09-28T09:05:13.164Z,3.80
2023-09-28T09:07:42.160Z,4.63
2023-09-28T09:10:13.306Z,3.93
2023-09-28T09:12:41.045Z,3.80
2023-09-28T09:15:08.980Z,3.70
2023-09-28T09:17:37.447Z,3.90
2023-09-28T09:20:05.799Z,3.60
2023-09-28T09:22:44.980Z,3.80
2023-09-28T09:25:21.180Z,4.00
2023-09-28T09:27:48.842Z,3.37
2023-09-28T09:30:16.532Z,3.93
2023-09-28T09:32:44.395Z,3.90
2023-09-28T09:35:12.757Z,3.50
2023-09-28T09:37:43.870Z,4.20
2023-09-28T09:40:12.193Z,4.10
2023-09-28T09:42:39.826Z,3.47
2023-09-28T09:45:07.724Z,3.60
2023-09-28T09:47:35.350Z,4.03
2023-09-28T09:50:03.378Z,3.90
2023-09-28T09:52:30.984Z,3.80
2023-09-28T09:54:58.676Z,3.37
2023-09-28T09:57:26.687Z,3.47
2023-09-28T09:59:55.970Z,3.07
2023-09-28T10:02:28.129Z,3.63
2023-09-28T10:04:56.173Z,3.07
2023-09-28T10:07:37.469Z,3.90
2023-09-28T10:10:15.609Z,3.37
2023-09-28T10:12:43.278Z,3.83
2023-09-28T10:15:11.483Z,3.50
2023-09-28T10:17:39.392Z,3.77
2023-09-28T10:20:07.586Z,3.40
2023-09-28T10:22:35.243Z,3.67
2023-09-28T10:25:02.961Z,3.80
2023-09-28T10:27:31.979Z,3.83
2023-09-28T10:30:18.741Z,3.30
2023-09-28T10:32:46.670Z,3.80
2023-09-28T10:35:14.303Z,3.50
2023-09-28T10:37:41.960Z,3.87
2023-09-28T10:40:09.864Z,3.37
2023-09-28T10:42:37.469Z,3.40
2023-09-28T10:45:06.959Z,4.17
2023-09-28T10:47:34.683Z,3.30
2023-09-28T10:50:02.841Z,3.77
2023-09-28T10:52:30.566Z,2.90
2023-09-28T10:54:58.224Z,4.00
2023-09-28T10:57:30.060Z,3.37
2023-09-28T11:00:01.459Z,3.00
2023-09-28T11:02:31.595Z,3.07
2023-09-28T11:05:01.118Z,3.43
2023-09-28T11:07:28.922Z,3.00
2023-09-28T11:09:56.612Z,3.20
2023-09-28T11:12:24.218Z,3.97
2023-09-28T11:14:51.908Z,3.70
2023-09-28T11:17:19.930Z,3.80
2023-09-28T11:19:47.600Z,3.30
2023-09-28T11:22:15.230Z,3.63
2023-09-28T11:24:42.835Z,3.50
2023-09-28T11:27:10.455Z,3.33
2023-09-28T11:29:39.427Z,3.53
2023-09-28T11:32:07.083Z,3.20
2023-09-28T11:34:39.281Z,3.73
2023-09-28T11:37:13.020Z,3.80
2023-09-28T11:39:43.735Z,3.07
2023-09-28T11:42:11.402Z,3.93
2023-09-28T11:44:39.060Z,3.30
2023-09-28T11:47:07.094Z,3.17
2023-09-28T11:49:34.763Z,3.40
2023-09-28T11:52:02.402Z,3.30
2023-09-28T11:54:30.034Z,3.73
2023-09-28T11:56:58.700Z,4.00
2023-09-28T11:59:26.416Z,4.13
2023-09-28T12:01:54.089Z,3.60
2023-09-28T12:04:21.738Z,3.80
2023-09-28T12:06:49.629Z,3.67
2023-09-28T12:09:17.632Z,3.13
2023-09-28T12:11:45.315Z,3.43
2023-09-28T12:14:15.142Z,3.37
2023-09-28T12:16:44.050Z,2.93
2023-09-28T12:19:13.542Z,3.10
2023-09-28T12:21:41.197Z,3.30
2023-09-28T12:24:08.918Z,2.80
2023-09-28T12:26:36.578Z,3.60
2023-09-28T12:29:04.331Z,3.20
2023-09-28T12:31:31.926Z,3.50
2023-09-28T12:33:59.547Z,3.20
2023-09-28T12:36:27.059Z,3.17
2023-09-28T12:38:54.688Z,3.43
2023-09-28T12:41:22.252Z,3.20
2023-09-28T12:43:50.111Z,3.50
2023-09-28T12:46:17.743Z,3.80
2023-09-28T12:48:45.430Z,4.23
2023-09-28T12:51:13.005Z,4.50
2023-09-28T12:53:40.708Z,3.73
2023-09-28T12:56:08.978Z,4.53
2023-09-28T12:58:36.701Z,4.03
2023-09-28T13:01:04.406Z,3.80
2023-09-28T13:03:32.201Z,3.83
2023-09-28T13:06:00.417Z,3.80
2023-09-28T13:08:28.279Z,4.03
2023-09-28T13:10:55.894Z,3.20
2023-09-28T13:13:23.558Z,3.50
2023-09-28T13:15:51.256Z,3.33
2023-09-28T13:18:18.865Z,3.33
2023-09-28T13:20:46.566Z,3.60
2023-09-28T13:23:14.422Z,3.63
2023-09-28T13:25:42.024Z,3.80
2023-09-28T13:28:09.700Z,3.53
2023-09-28T13:30:37.280Z,3.40
2023-09-28T13:33:05.065Z,4.00
2023-09-28T13:35:32.597Z,3.53
2023-09-28T13:38:02.927Z,3.77
2023-09-28T13:40:33.136Z,3.63
2023-09-28T13:43:04.248Z,3.53
2023-09-28T13:45:31.878Z,3.23
2023-09-28T13:47:59.494Z,3.50
2023-09-28T13:50:27.476Z,3.57
2023-09-28T13:52:55.162Z,3.30
2023-09-28T13:55:22.842Z,3.60
2023-09-28T13:57:50.489Z,3.60
2023-09-28T14:00:18.298Z,3.60
2023-09-28T14:02:46.290Z,3.47
2023-09-28T14:05:14.026Z,3.93
2023-09-28T14:07:41.566Z,3.70
2023-09-28T14:10:09.408Z,4.20
2023-09-28T14:12:36.994Z,3.30
2023-09-28T14:15:05.063Z,3.63
2023-09-28T14:17:38.912Z,3.63
2023-09-28T14:20:08.408Z,3.13
2023-09-28T14:22:36.847Z,3.63
2023-09-28T14:25:04.714Z,3.53
2023-09-28T14:27:32.356Z,3.20
2023-09-28T14:30:00.039Z,2.97
2023-09-28T14:32:27.655Z,3.40
2023-09-28T14:34:56.965Z,3.00
2023-09-28T14:37:26.069Z,3.60
2023-09-28T14:39:53.615Z,3.50
2023-09-28T14:42:21.419Z,3.80
2023-09-28T14:44:49.165Z,2.93
2023-09-28T14:47:16.779Z,3.40
2023-09-28T14:49:44.394Z,3.33
2023-09-28T14:52:12.136Z,3.40
2023-09-28T14:54:39.713Z,3.77
2023-09-28T14:57:07.365Z,3.50
2023-09-28T14:59:35.035Z,3.90
2023-09-28T15:02:02.757Z,3.57
2023-09-28T15:04:30.378Z,4.00
2023-09-28T15:06:58.039Z,4.30
2023-09-28T15:09:26.113Z,4.47
2023-09-28T15:11:53.717Z,3.83
2023-09-28T15:14:21.262Z,4.03
2023-09-28T15:16:49.001Z,3.63
2023-09-28T15:19:16.647Z,4.37
2023-09-28T15:21:44.361Z,4.10
2023-09-28T15:24:11.976Z,3.93
2023-09-28T15:26:39.693Z,3.70
2023-09-28T15:29:10.207Z,4.03
2023-09-28T15:31:38.526Z,4.03
2023-09-28T15:34:06.077Z,3.77
2023-09-28T15:36:33.749Z,4.10
2023-09-28T15:39:01.313Z,4.10
2023-09-28T15:41:36.421Z,4.50
2023-09-28T15:44:05.103Z,3.60
2023-09-28T15:46:33.688Z,4.17
2023-09-28T15:49:01.902Z,4.23
2023-09-28T15:51:29.916Z,3.80
2023-09-28T15:53:57.634Z,3.73
2023-09-28T15:56:25.268Z,3.43
2023-09-28T15:58:53.120Z,4.13
2023-09-28T16:01:20.801Z,3.90
2023-09-28T16:03:48.912Z,3.63
2023-09-28T16:06:16.566Z,3.70
2023-09-28T16:08:44.245Z,3.80
2023-09-28T16:11:11.816Z,3.90
2023-09-28T16:13:39.397Z,3.80
2023-09-28T16:16:07.028Z,3.77
2023-09-28T16:18:34.626Z,4.07
2023-09-28T16:21:02.196Z,3.30
2023-09-28T16:23:30.312Z,3.93
2023-09-28T16:25:57.919Z,4.40
2023-09-28T16:28:25.565Z,4.17
2023-09-28T16:30:53.160Z,4.10
2023-09-28T16:33:21.073Z,4.60
2023-09-28T16:35:48.750Z,4.57
2023-09-28T16:38:16.469Z,4.60
2023-09-28T16:40:44.014Z,4.00
2023-09-28T16:43:11.666Z,5.03
2023-09-28T16:45:39.246Z,4.57
2023-09-28T16:48:07.349Z,4.70
2023-09-28T16:50:35.169Z,4.70
2023-09-28T16:53:02.944Z,4.73
2023-09-28T16:55:30.547Z,4.30
2023-09-28T16:57:58.177Z,4.53
2023-09-28T17:00:25.716Z,4.73
2023-09-28T17:02:53.440Z,4.43
2023-09-28T17:05:21.106Z,4.20
2023-09-28T17:07:48.790Z,4.93
2023-09-28T17:10:18.275Z,4.43
2023-09-28T17:12:47.439Z,4.30
2023-09-28T17:15:15.110Z,4.37
2023-09-28T17:17:42.937Z,4.77
2023-09-28T17:20:11.009Z,4.33
2023-09-28T17:22:38.729Z,4.47
2023-09-28T17:25:09.765Z,4.60
2023-09-28T17:27:37.352Z,3.83
2023-09-28T17:30:05.121Z,4.33
2023-09-28T17:32:32.789Z,4.50
2023-09-28T17:35:04.046Z,4.53
2023-09-28T17:37:31.940Z,5.23
2023-09-28T17:39:59.533Z,5.07
2023-09-28T17:42:27.220Z,4.93
2023-09-28T17:44:54.739Z,4.67
2023-09-28T17:47:22.446Z,5.00
2023-09-28T17:49:50.135Z,4.90
2023-09-28T17:52:17.832Z,4.70
2023-09-28T17:54:45.381Z,4.20
2023-09-28T17:57:13.024Z,4.50
2023-09-28T17:59:40.794Z,4.83
2023-09-28T18:02:08.824Z,4.47
2023-09-28T18:04:36.515Z,4.53
2023-09-28T18:07:04.093Z,4.90
2023-09-28T18:09:31.723Z,4.50
2023-09-28T18:11:59.342Z,4.27
2023-09-28T18:14:26.996Z,5.00
2023-09-28T18:16:54.667Z,4.33
2023-09-28T18:19:22.263Z,4.70
2023-09-28T18:21:49.978Z,4.77
2023-09-28T18:24:17.543Z,4.47
2023-09-28T18:26:45.134Z,5.50
2023-09-28T18:29:12.787Z,5.17
2023-09-28T18:31:40.693Z,5.20
2023-09-28T18:34:09.545Z,5.30
2023-09-28T18:36:37.288Z,4.90
2023-09-28T18:39:13.990Z,4.90
2023-09-28T18:41:42.959Z,4.90
2023-09-28T18:44:10.570Z,5.43
2023-09-28T18:46:38.357Z,5.17
2023-09-28T18:49:06.217Z,4.93
2023-09-28T18:51:33.860Z,4.40
2023-09-28T18:54:01.477Z,5.20
2023-09-28T18:56:29.224Z,5.10
2023-09-28T18:58:56.798Z,5.40
2023-09-28T19:01:24.503Z,4.67
2023-09-28T19:03:52.045Z,5.37
2023-09-28T19:06:20.405Z,5.53
2023-09-28T19:08:48.148Z,5.80
2023-09-28T19:11:15.960Z,5.17
2023-09-28T19:13:43.670Z,5.30
2023-09-28T19:16:11.370Z,5.60
2023-09-28T19:18:39.025Z,5.33
2023-09-28T19:21:06.973Z,5.30
2023-09-28T19:23:34.677Z,5.30
2023-09-28T19:26:03.493Z,5.13
2023-09-28T19:28:31.098Z,5.57
2023-09-28T19:30:58.703Z,5.57
2023-09-28T19:33:26.340Z,5.53
2023-09-28T19:35:53.947Z,5.57
2023-09-28T19:38:21.641Z,5.87
2023-09-28T19:40:49.273Z,6.10
2023-09-28T19:43:16.890Z,5.60
2023-09-28T19:45:44.513Z,5.70
2023-09-28T19:48:12.306Z,5.50
2023-09-28T19:50:41.108Z,5.90
2023-09-28T19:53:09.130Z,6.17
2023-09-28T19:55:36.815Z,6.10
2023-09-28T19:58:04.499Z,5.30
2023-09-28T20:00:32.513Z,6.13
2023-09-28T20:03:00.466Z,5.13
2023-09-28T20:05:28.189Z,5.83
2023-09-28T20:07:55.848Z,6.00
2023-09-28T20:10:23.581Z,6.00
2023-09-28T20:12:51.193Z,5.57
2023-09-28T20:15:18.754Z,5.40
2023-09-28T20:17:46.469Z,6.20
2023-09-28T20:20:14.090Z,5.43
2023-09-28T20:22:55.857Z,6.17
2023-09-28T20:25:25.304Z,5.97
2023-09-28T20:27:53.749Z,5.90
2023-09-28T20:30:21.503Z,6.37
2023-09-28T20:32:49.419Z,5.77
2023-09-28T20:35:17.234Z,6.10
2023-09-28T20:37:44.871Z,5.70
2023-09-28T20:40:12.821Z,6.03
2023-09-28T20:42:40.490Z,5.40
2023-09-28T20:45:08.300Z,6.10
2023-09-28T20:47:37.193Z,4.90
2023-09-28T20:50:10.227Z,6.37
2023-09-28T20:52:38.219Z,6.27
2023-09-28T20:55:06.410Z,5.97
2023-09-28T20:57:34.203Z,5.30
2023-09-28T21:00:01.840Z,6.47
2023-09-28T21:02:29.522Z,6.20
2023-09-28T21:04:57.124Z,6.37
2023-09-28T21:07:24.774Z,5.43
2023-09-28T21:09:52.366Z,6.13
2023-09-28T21:12:20.009Z,6.40
2023-09-28T21:14:47.616Z,6.40
2023-09-28T21:17:15.374Z,6.23
2023-09-28T21:19:43.111Z,6.73
2023-09-28T21:22:10.800Z,6.07
2023-09-28T21:24:38.361Z,6.87
2023-09-28T21:27:06.053Z,6.47
2023-09-28T21:29:33.687Z,6.63
2023-09-28T21:32:01.436Z,7.30
2023-09-28T21:34:29.040Z,6.83
2023-09-28T21:36:56.646Z,7.40
2023-09-28T21:39:24.222Z,6.33
2023-09-28T21:41:51.982Z,7.13
2023-09-28T21:44:19.595Z,6.90
2023-09-28T21:46:47.329Z,7.40
2023-09-28T21:49:14.988Z,7.13
2023-09-28T21:51:42.613Z,6.47
2023-09-28T21:54:10.320Z,6.80
2023-09-28T21:56:37.931Z,5.63
2023-09-28T21:59:05.669Z,6.47
2023-09-28T22:01:33.381Z,6.23
2023-09-28T22:04:01.052Z,6.23
2023-09-28T22:06:28.786Z,5.73
2023-09-28T22:08:56.644Z,6.30
2023-09-28T22:11:24.431Z,5.77
2023-09-28T22:13:52.107Z,6.73
2023-09-28T22:16:19.861Z,5.77
2023-09-28T22:18:47.466Z,6.40
2023-09-28T22:21:15.174Z,5.77
2023-09-28T22:23:42.787Z,6.17
2023-09-28T22:26:10.560Z,5.80
2023-09-28T22:28:38.362Z,5.87
2023-09-28T22:31:06.105Z,5.40
2023-09-28T22:33:35.606Z,5.60
2023-09-28T22:36:03.608Z,5.47
2023-09-28T22:38:31.200Z,5.27
2023-09-28T22:40:58.872Z,5.57
2023-09-28T22:43:26.548Z,5.10
2023-09-28T22:45:54.243Z,5.63
2023-09-28T22:48:22.026Z,5.30
2023-09-28T22:50:49.703Z,5.23
2023-09-28T22:53:17.280Z,5.50
2023-09-28T22:55:44.942Z,5.03
2023-09-28T22:58:12.637Z,5.30
2023-09-28T23:00:40.389Z,4.73
2023-09-28T23:03:08.299Z,4.97
2023-09-28T23:05:36.085Z,5.60
2023-09-28T23:08:03.811Z,5.53
2023-09-28T23:10:33.938Z,4.97
2023-09-28T23:13:02.046Z,4.60
2023-09-28T23:15:29.695Z,4.87
2023-09-28T23:17:58.371Z,4.53
2023-09-28T23:20:26.137Z,4.70
2023-09-28T23:22:53.858Z,4.90
2023-09-28T23:25:21.677Z,4.80
2023-09-28T23:27:49.532Z,4.63
2023-09-28T23:30:17.872Z,4.93
2023-09-28T23:32:49.244Z,5.20
2023-09-28T23:35:17.430Z,5.30
2023-09-28T23:37:45.536Z,5.17
2023-09-28T23:40:13.283Z,4.60
2023-09-28T23:42:41.089Z,4.60
2023-09-28T23:45:09.111Z,4.53
2023-09-28T23:47:36.782Z,5.13
2023-09-28T23:50:04.520Z,4.97
2023-09-28T23:52:32.207Z,4.80
2023-09-28T23:55:00.237Z,4.50
2023-09-28T23:57:28.026Z,5.00
2023-09-28T23:59:55.768Z,4.60
